sensor_id;sensor_type;location;lat;lon;timestamp;pressure;altitude;pressure_sealevel;temperature;humidity
62031;BME280;62035;52.094;5.112;2022-07-17T00:01:35;102797.38;;;16.93;100.00
62031;BME280;62035;52.094;5.112;2022-07-17T00:04:02;102799.06;;;16.94;100.00
62031;BME280;62035;52.094;5.112;2022-07-17T00:06:30;102802.91;;;16.92;100.00
62031;BME280;62035;52.094;5.112;2022-07-17T00:08:59;102801.34;;;16.80;100.00
62031;BME280;62035;52.094;5.112;2022-07-17T00:11:27;102808.44;;;16.71;100.00
62031;BME280;62035;52.094;5.112;2022-07-17T00:13:55;102804.47;;;16.65;100.00
62031;BME280;62035;52.094;5.112;2022-07-17T00:16:22;102816.31;;;16.53;100.00
62031;BME280;62035;52.094;5.112;2022-07-17T00:18:50;102813.75;;;16.42;100.00
62031;BME280;62035;52.094;5.112;2022-07-17T00:21:18;102823.44;;;16.74;100.00
62031;BME280;62035;52.094;5.112;2022-07-17T00:23:45;102819.03;;;16.92;100.00
62031;BME280;62035;52.094;5.112;2022-07-17T00:26:14;102808.53;;;16.60;100.00
62031;BME280;62035;52.094;5.112;2022-07-17T00:28:42;102817.13;;;16.44;100.00
62031;BME280;62035;52.094;5.112;2022-07-17T00:31:10;102820.81;;;16.24;100.00
62031;BME280;62035;52.094;5.112;2022-07-17T00:33:37;102806.81;;;16.30;100.00
62031;BME280;62035;52.094;5.112;2022-07-17T00:36:05;102805.69;;;16.42;100.00
62031;BME280;62035;52.094;5.112;2022-07-17T00:38:33;102808.81;;;16.57;100.00
62031;BME280;62035;52.094;5.112;2022-07-17T00:41:01;102810.56;;;16.67;100.00
62031;BME280;62035;52.094;5.112;2022-07-17T00:43:30;102807.81;;;16.58;100.00
62031;BME280;62035;52.094;5.112;2022-07-17T00:45:59;102796.78;;;16.51;100.00
62031;BME280;62035;52.094;5.112;2022-07-17T00:48:29;102806.41;;;16.63;100.00
62031;BME280;62035;52.094;5.112;2022-07-17T00:50:58;102805.91;;;16.70;100.00
62031;BME280;62035;52.094;5.112;2022-07-17T00:53:26;102797.41;;;16.64;100.00
62031;BME280;62035;52.094;5.112;2022-07-17T00:55:57;102800.94;;;16.65;100.00
62031;BME280;62035;52.094;5.112;2022-07-17T00:58:25;102811.28;;;16.79;100.00
62031;BME280;62035;52.094;5.112;2022-07-17T01:00:55;102800.66;;;16.78;100.00
62031;BME280;62035;52.094;5.112;2022-07-17T01:03:25;102808.59;;;16.79;100.00
62031;BME280;62035;52.094;5.112;2022-07-17T01:05:53;102810.00;;;16.74;100.00
62031;BME280;62035;52.094;5.112;2022-07-17T01:08:21;102807.16;;;16.75;100.00
62031;BME280;62035;52.094;5.112;2022-07-17T01:10:48;102798.50;;;16.91;100.00
62031;BME280;62035;52.094;5.112;2022-07-17T01:13:16;102802.31;;;16.98;100.00
62031;BME280;62035;52.094;5.112;2022-07-17T01:15:45;102803.19;;;16.98;100.00
62031;BME280;62035;52.094;5.112;2022-07-17T01:18:14;102806.28;;;16.94;100.00
62031;BME280;62035;52.094;5.112;2022-07-17T01:20:45;102797.94;;;16.97;100.00
62031;BME280;62035;52.094;5.112;2022-07-17T01:23:16;102803.75;;;16.83;100.00
62031;BME280;62035;52.094;5.112;2022-07-17T01:25:46;102799.50;;;16.80;100.00
62031;BME280;62035;52.094;5.112;2022-07-17T01:28:14;102794.28;;;16.69;100.00
62031;BME280;62035;52.094;5.112;2022-07-17T01:30:46;102796.91;;;16.40;100.00
62031;BME280;62035;52.094;5.112;2022-07-17T01:33:16;102786.88;;;16.32;100.00
62031;BME280;62035;52.094;5.112;2022-07-17T01:35:44;102792.25;;;16.32;100.00
62031;BME280;62035;52.094;5.112;2022-07-17T01:38:12;102783.47;;;16.30;100.00
62031;BME280;62035;52.094;5.112;2022-07-17T01:40:41;102782.63;;;16.20;100.00
62031;BME280;62035;52.094;5.112;2022-07-17T01:43:09;102777.94;;;16.13;100.00
62031;BME280;62035;52.094;5.112;2022-07-17T01:45:36;102788.22;;;16.08;100.00
62031;BME280;62035;52.094;5.112;2022-07-17T01:48:04;102786.53;;;15.97;100.00
62031;BME280;62035;52.094;5.112;2022-07-17T01:50:32;102788.06;;;15.99;100.00
62031;BME280;62035;52.094;5.112;2022-07-17T01:53:00;102782.03;;;16.17;100.00
62031;BME280;62035;52.094;5.112;2022-07-17T01:55:28;102787.38;;;16.07;100.00
62031;BME280;62035;52.094;5.112;2022-07-17T01:57:56;102788.50;;;16.05;100.00
62031;BME280;62035;52.094;5.112;2022-07-17T02:00:24;102790.78;;;16.09;100.00
62031;BME280;62035;52.094;5.112;2022-07-17T02:02:52;102790.66;;;16.11;100.00
62031;BME280;62035;52.094;5.112;2022-07-17T02:05:19;102785.56;;;15.98;100.00
62031;BME280;62035;52.094;5.112;2022-07-17T02:07:47;102780.31;;;15.96;100.00
62031;BME280;62035;52.094;5.112;2022-07-17T02:10:15;102784.19;;;15.73;100.00
62031;BME280;62035;52.094;5.112;2022-07-17T02:12:43;102788.88;;;15.81;100.00
62031;BME280;62035;52.094;5.112;2022-07-17T02:15:13;102791.31;;;15.93;100.00
62031;BME280;62035;52.094;5.112;2022-07-17T02:17:41;102788.91;;;16.00;100.00
62031;BME280;62035;52.094;5.112;2022-07-17T02:20:10;102785.81;;;16.05;100.00
62031;BME280;62035;52.094;5.112;2022-07-17T02:22:39;102793.75;;;15.96;100.00
62031;BME280;62035;52.094;5.112;2022-07-17T02:25:08;102792.88;;;15.96;100.00
62031;BME280;62035;52.094;5.112;2022-07-17T02:27:37;102804.75;;;15.93;100.00
62031;BME280;62035;52.094;5.112;2022-07-17T02:30:07;102811.81;;;15.64;100.00
62031;BME280;62035;52.094;5.112;2022-07-17T02:32:38;102804.03;;;15.91;100.00
62031;BME280;62035;52.094;5.112;2022-07-17T02:35:07;102808.19;;;15.75;100.00
62031;BME280;62035;52.094;5.112;2022-07-17T02:37:36;102810.31;;;15.71;100.00
62031;BME280;62035;52.094;5.112;2022-07-17T02:40:05;102811.59;;;15.77;100.00
62031;BME280;62035;52.094;5.112;2022-07-17T02:42:33;102796.69;;;15.93;100.00
62031;BME280;62035;52.094;5.112;2022-07-17T02:45:01;102799.31;;;15.74;100.00
62031;BME280;62035;52.094;5.112;2022-07-17T02:47:31;102802.19;;;15.61;100.00
62031;BME280;62035;52.094;5.112;2022-07-17T02:50:03;102801.66;;;15.58;100.00
62031;BME280;62035;52.094;5.112;2022-07-17T02:52:32;102797.56;;;15.43;100.00
62031;BME280;62035;52.094;5.112;2022-07-17T02:55:00;102795.44;;;15.67;100.00
62031;BME280;62035;52.094;5.112;2022-07-17T02:57:28;102789.59;;;15.52;100.00
62031;BME280;62035;52.094;5.112;2022-07-17T02:59:55;102793.31;;;15.61;100.00
62031;BME280;62035;52.094;5.112;2022-07-17T03:02:23;102800.28;;;15.73;100.00
62031;BME280;62035;52.094;5.112;2022-07-17T03:04:50;102804.34;;;15.58;100.00
62031;BME280;62035;52.094;5.112;2022-07-17T03:07:19;102805.81;;;15.51;100.00
62031;BME280;62035;52.094;5.112;2022-07-17T03:09:47;102798.63;;;15.30;100.00
62031;BME280;62035;52.094;5.112;2022-07-17T03:12:14;102802.28;;;15.29;100.00
62031;BME280;62035;52.094;5.112;2022-07-17T03:14:42;102803.72;;;15.33;100.00
62031;BME280;62035;52.094;5.112;2022-07-17T03:17:09;102805.16;;;15.38;100.00
62031;BME280;62035;52.094;5.112;2022-07-17T03:19:37;102809.03;;;15.45;100.00
62031;BME280;62035;52.094;5.112;2022-07-17T03:22:05;102816.94;;;15.25;100.00
62031;BME280;62035;52.094;5.112;2022-07-17T03:24:33;102817.34;;;15.42;100.00
62031;BME280;62035;52.094;5.112;2022-07-17T03:27:01;102811.56;;;15.67;100.00
62031;BME280;62035;52.094;5.112;2022-07-17T03:29:29;102815.53;;;15.73;100.00
62031;BME280;62035;52.094;5.112;2022-07-17T03:31:56;102817.47;;;15.61;100.00
62031;BME280;62035;52.094;5.112;2022-07-17T03:34:24;102817.47;;;15.61;100.00
62031;BME280;62035;52.094;5.112;2022-07-17T03:36:52;102820.66;;;15.55;100.00
62031;BME280;62035;52.094;5.112;2022-07-17T03:39:19;102801.94;;;15.64;100.00
62031;BME280;62035;52.094;5.112;2022-07-17T03:41:48;102800.84;;;15.46;100.00
62031;BME280;62035;52.094;5.112;2022-07-17T03:44:17;102804.25;;;15.48;100.00
62031;BME280;62035;52.094;5.112;2022-07-17T03:46:45;102814.31;;;15.56;100.00
62031;BME280;62035;52.094;5.112;2022-07-17T03:49:12;102817.47;;;15.61;100.00
62031;BME280;62035;52.094;5.112;2022-07-17T03:51:40;102826.78;;;15.57;100.00
62031;BME280;62035;52.094;5.112;2022-07-17T03:54:08;102812.69;;;15.64;100.00
62031;BME280;62035;52.094;5.112;2022-07-17T03:56:36;102829.09;;;15.71;100.00
62031;BME280;62035;52.094;5.112;2022-07-17T03:59:05;102823.47;;;15.74;100.00
62031;BME280;62035;52.094;5.112;2022-07-17T04:01:33;102823.16;;;15.67;100.00
62031;BME280;62035;52.094;5.112;2022-07-17T04:04:00;102827.06;;;15.63;100.00
62031;BME280;62035;52.094;5.112;2022-07-17T04:06:28;102830.66;;;15.74;100.00
62031;BME280;62035;52.094;5.112;2022-07-17T04:08:56;102834.72;;;15.68;100.00
62031;BME280;62035;52.094;5.112;2022-07-17T04:11:23;102833.03;;;15.67;100.00
62031;BME280;62035;52.094;5.112;2022-07-17T04:13:51;102838.00;;;15.72;100.00
62031;BME280;62035;52.094;5.112;2022-07-17T04:16:20;102836.28;;;15.71;100.00
62031;BME280;62035;52.094;5.112;2022-07-17T04:18:47;102834.41;;;15.61;100.00
62031;BME280;62035;52.094;5.112;2022-07-17T04:21:15;102839.69;;;15.73;100.00
62031;BME280;62035;52.094;5.112;2022-07-17T04:23:43;102838.41;;;15.67;100.00
62031;BME280;62035;52.094;5.112;2022-07-17T04:26:10;102838.75;;;15.83;100.00
62031;BME280;62035;52.094;5.112;2022-07-17T04:28:38;102826.63;;;15.89;100.00
62031;BME280;62035;52.094;5.112;2022-07-17T04:31:06;102826.38;;;15.92;100.00
62031;BME280;62035;52.094;5.112;2022-07-17T04:33:36;102830.75;;;15.93;100.00
62031;BME280;62035;52.094;5.112;2022-07-17T04:36:03;102832.63;;;16.12;100.00
62031;BME280;62035;52.094;5.112;2022-07-17T04:38:31;102831.75;;;16.01;100.00
62031;BME280;62035;52.094;5.112;2022-07-17T04:40:59;102836.25;;;16.31;100.00
62031;BME280;62035;52.094;5.112;2022-07-17T04:43:26;102833.53;;;16.22;100.00
62031;BME280;62035;52.094;5.112;2022-07-17T04:45:54;102818.50;;;16.10;100.00
62031;BME280;62035;52.094;5.112;2022-07-17T04:48:22;102818.81;;;16.26;100.00
62031;BME280;62035;52.094;5.112;2022-07-17T04:50:51;102811.31;;;16.20;100.00
62031;BME280;62035;52.094;5.112;2022-07-17T04:53:18;102803.41;;;16.28;100.00
62031;BME280;62035;52.094;5.112;2022-07-17T04:55:46;102803.69;;;16.44;100.00
62031;BME280;62035;52.094;5.112;2022-07-17T04:58:13;102813.44;;;16.26;100.00
62031;BME280;62035;52.094;5.112;2022-07-17T05:00:41;102814.31;;;16.26;100.00
62031;BME280;62035;52.094;5.112;2022-07-17T05:03:09;102809.81;;;16.56;100.00
62031;BME280;62035;52.094;5.112;2022-07-17T05:05:36;102812.41;;;16.77;100.00
62031;BME280;62035;52.094;5.112;2022-07-17T05:08:07;102811.25;;;16.89;100.00
62031;BME280;62035;52.094;5.112;2022-07-17T05:10:35;102804.44;;;16.94;100.00
62031;BME280;62035;52.094;5.112;2022-07-17T05:13:02;102796.78;;;17.09;100.00
62031;BME280;62035;52.094;5.112;2022-07-17T05:15:30;102793.31;;;17.36;100.00
62031;BME280;62035;52.094;5.112;2022-07-17T05:17:58;102775.66;;;18.16;100.00
62031;BME280;62035;52.094;5.112;2022-07-17T05:20:25;102774.84;;;19.38;100.00
62031;BME280;62035;52.094;5.112;2022-07-17T05:22:53;102771.88;;;20.34;100.00
62031;BME280;62035;52.094;5.112;2022-07-17T05:25:22;102775.44;;;20.83;100.00
62031;BME280;62035;52.094;5.112;2022-07-17T05:27:49;102778.78;;;20.28;100.00
62031;BME280;62035;52.094;5.112;2022-07-17T05:30:17;102790.19;;;19.97;100.00
62031;BME280;62035;52.094;5.112;2022-07-17T05:32:45;102779.63;;;19.78;100.00
62031;BME280;62035;52.094;5.112;2022-07-17T05:35:12;102789.84;;;19.92;100.00
62031;BME280;62035;52.094;5.112;2022-07-17T05:37:40;102801.63;;;20.34;100.00
62031;BME280;62035;52.094;5.112;2022-07-17T05:40:08;102807.72;;;19.85;100.00
62031;BME280;62035;52.094;5.112;2022-07-17T05:42:37;102800.84;;;19.99;100.00
62031;BME280;62035;52.094;5.112;2022-07-17T05:45:06;102809.47;;;19.69;100.00
62031;BME280;62035;52.094;5.112;2022-07-17T05:47:34;102801.31;;;19.35;100.00
62031;BME280;62035;52.094;5.112;2022-07-17T05:50:02;102799.16;;;19.12;100.00
62031;BME280;62035;52.094;5.112;2022-07-17T05:52:30;102805.72;;;19.36;100.00
62031;BME280;62035;52.094;5.112;2022-07-17T05:54:57;102813.00;;;19.95;100.00
62031;BME280;62035;52.094;5.112;2022-07-17T05:57:25;102805.19;;;20.50;100.00
62031;BME280;62035;52.094;5.112;2022-07-17T05:59:54;102803.03;;;20.94;100.00
62031;BME280;62035;52.094;5.112;2022-07-17T06:02:21;102808.75;;;21.32;100.00
62031;BME280;62035;52.094;5.112;2022-07-17T06:04:49;102817.44;;;22.22;94.56
62031;BME280;62035;52.094;5.112;2022-07-17T06:07:16;102823.72;;;22.45;88.91
62031;BME280;62035;52.094;5.112;2022-07-17T06:09:44;102830.84;;;23.15;84.30
62031;BME280;62035;52.094;5.112;2022-07-17T06:12:11;102837.69;;;23.11;83.40
62031;BME280;62035;52.094;5.112;2022-07-17T06:14:39;102835.06;;;23.55;80.76
62031;BME280;62035;52.094;5.112;2022-07-17T06:17:08;102839.38;;;22.89;80.46
62031;BME280;62035;52.094;5.112;2022-07-17T06:19:35;102830.34;;;23.64;77.66
62031;BME280;62035;52.094;5.112;2022-07-17T06:22:03;102829.94;;;24.11;74.57
62031;BME280;62035;52.094;5.112;2022-07-17T06:24:31;102840.38;;;24.43;71.76
62031;BME280;62035;52.094;5.112;2022-07-17T06:26:58;102851.50;;;24.27;69.67
62031;BME280;62035;52.094;5.112;2022-07-17T06:29:26;102852.38;;;23.69;71.89
62031;BME280;62035;52.094;5.112;2022-07-17T06:31:54;102863.25;;;24.27;70.89
62031;BME280;62035;52.094;5.112;2022-07-17T06:34:23;102859.72;;;24.70;67.63
62031;BME280;62035;52.094;5.112;2022-07-17T06:36:50;102863.28;;;24.91;67.02
62031;BME280;62035;52.094;5.112;2022-07-17T06:39:18;102857.41;;;24.67;66.61
62031;BME280;62035;52.094;5.112;2022-07-17T06:41:45;102844.22;;;24.91;66.60
62031;BME280;62035;52.094;5.112;2022-07-17T06:44:13;102846.63;;;24.58;67.78
62031;BME280;62035;52.094;5.112;2022-07-17T06:46:41;102855.06;;;24.64;67.86
62031;BME280;62035;52.094;5.112;2022-07-17T06:49:08;102848.94;;;24.40;68.37
62031;BME280;62035;52.094;5.112;2022-07-17T06:51:37;102849.19;;;24.45;68.10
62031;BME280;62035;52.094;5.112;2022-07-17T06:54:05;102853.56;;;24.61;68.11
62031;BME280;62035;52.094;5.112;2022-07-17T06:56:32;102870.63;;;24.19;68.65
62031;BME280;62035;52.094;5.112;2022-07-17T06:59:00;102861.09;;;23.64;71.89
62031;BME280;62035;52.094;5.112;2022-07-17T07:01:29;102863.25;;;23.16;73.07
62031;BME280;62035;52.094;5.112;2022-07-17T07:03:56;102860.22;;;23.49;73.05
62031;BME280;62035;52.094;5.112;2022-07-17T07:06:24;102850.13;;;23.72;73.18
62031;BME280;62035;52.094;5.112;2022-07-17T07:08:53;102852.28;;;23.62;73.46
62031;BME280;62035;52.094;5.112;2022-07-17T07:11:21;102861.69;;;23.37;74.83
62031;BME280;62035;52.094;5.112;2022-07-17T07:13:48;102859.50;;;23.55;74.16
62031;BME280;62035;52.094;5.112;2022-07-17T07:16:16;102862.25;;;23.55;74.83
62031;BME280;62035;52.094;5.112;2022-07-17T07:18:43;102857.59;;;22.80;83.27
62031;BME280;62035;52.094;5.112;2022-07-17T07:21:11;102864.78;;;22.42;87.34
62031;BME280;62035;52.094;5.112;2022-07-17T07:23:38;102862.16;;;21.79;91.35
62031;BME280;62035;52.094;5.112;2022-07-17T07:26:08;102862.34;;;21.69;94.69
62031;BME280;62035;52.094;5.112;2022-07-17T07:28:35;102868.31;;;22.12;91.40
62031;BME280;62035;52.094;5.112;2022-07-17T07:31:04;102866.75;;;22.25;91.42
62031;BME280;62035;52.094;5.112;2022-07-17T07:33:31;102862.69;;;22.52;90.15
62031;BME280;62035;52.094;5.112;2022-07-17T07:35:59;102866.81;;;22.40;90.42
62031;BME280;62035;52.094;5.112;2022-07-17T07:38:27;102864.50;;;22.37;92.03
62031;BME280;62035;52.094;5.112;2022-07-17T07:40:54;102870.00;;;22.13;93.25
62031;BME280;62035;52.094;5.112;2022-07-17T07:43:23;102868.34;;;22.04;92.98
62031;BME280;62035;52.094;5.112;2022-07-17T07:45:51;102868.81;;;22.15;92.71
62031;BME280;62035;52.094;5.112;2022-07-17T07:48:18;102860.75;;;21.99;93.63
62031;BME280;62035;52.094;5.112;2022-07-17T07:50:46;102864.59;;;22.13;93.21
62031;BME280;62035;52.094;5.112;2022-07-17T07:53:14;102863.44;;;21.44;97.39
62031;BME280;62035;52.094;5.112;2022-07-17T07:55:41;102860.88;;;21.50;98.55
62031;BME280;62035;52.094;5.112;2022-07-17T07:58:10;102861.31;;;21.78;96.68
62031;BME280;62035;52.094;5.112;2022-07-17T08:00:44;102863.31;;;21.92;95.04
62031;BME280;62035;52.094;5.112;2022-07-17T08:03:12;102865.66;;;22.04;95.90
62031;BME280;62035;52.094;5.112;2022-07-17T08:05:41;102865.91;;;22.25;94.17
62031;BME280;62035;52.094;5.112;2022-07-17T08:08:09;102869.25;;;22.35;93.15
62031;BME280;62035;52.094;5.112;2022-07-17T08:10:36;102865.50;;;21.97;93.99
62031;BME280;62035;52.094;5.112;2022-07-17T08:13:04;102862.00;;;21.72;93.64
62031;BME280;62035;52.094;5.112;2022-07-17T08:15:31;102867.03;;;21.91;91.92
62031;BME280;62035;52.094;5.112;2022-07-17T08:18:00;102863.09;;;22.02;91.86
62031;BME280;62035;52.094;5.112;2022-07-17T08:20:28;102854.63;;;22.05;91.84
62031;BME280;62035;52.094;5.112;2022-07-17T08:22:56;102853.03;;;22.19;92.43
62031;BME280;62035;52.094;5.112;2022-07-17T08:25:24;102857.44;;;22.20;90.69
62031;BME280;62035;52.094;5.112;2022-07-17T08:27:51;102855.13;;;22.01;93.14
62031;BME280;62035;52.094;5.112;2022-07-17T08:30:19;102854.78;;;22.04;93.46
62031;BME280;62035;52.094;5.112;2022-07-17T08:32:46;102840.19;;;22.44;91.02
62031;BME280;62035;52.094;5.112;2022-07-17T08:35:15;102830.34;;;22.43;89.58
62031;BME280;62035;52.094;5.112;2022-07-17T08:37:45;102843.38;;;22.47;89.58
62031;BME280;62035;52.094;5.112;2022-07-17T08:40:18;102847.81;;;22.40;88.98
62031;BME280;62035;52.094;5.112;2022-07-17T08:42:48;102832.47;;;22.55;86.71
62031;BME280;62035;52.094;5.112;2022-07-17T08:45:16;102841.25;;;22.88;85.04
62031;BME280;62035;52.094;5.112;2022-07-17T08:47:44;102850.88;;;22.68;83.61
62031;BME280;62035;52.094;5.112;2022-07-17T08:50:13;102845.09;;;22.71;84.83
62031;BME280;62035;52.094;5.112;2022-07-17T08:52:42;102849.38;;;22.88;82.95
62031;BME280;62035;52.094;5.112;2022-07-17T08:55:11;102844.03;;;23.03;79.28
62031;BME280;62035;52.094;5.112;2022-07-17T08:57:41;102840.38;;;23.11;79.87
62031;BME280;62035;52.094;5.112;2022-07-17T09:00:12;102842.69;;;22.99;81.06
62031;BME280;62035;52.094;5.112;2022-07-17T09:02:53;102843.41;;;22.93;79.10
62031;BME280;62035;52.094;5.112;2022-07-17T09:05:24;102848.59;;;23.03;78.48
62031;BME280;62035;52.094;5.112;2022-07-17T09:08:00;102831.31;;;23.18;77.32
62031;BME280;62035;52.094;5.112;2022-07-17T09:10:32;102829.94;;;23.37;74.75
62031;BME280;62035;52.094;5.112;2022-07-17T09:13:13;102830.50;;;23.33;75.25
62031;BME280;62035;52.094;5.112;2022-07-17T09:15:43;102838.06;;;23.22;75.24
62031;BME280;62035;52.094;5.112;2022-07-17T09:18:11;102835.44;;;23.29;75.41
62031;BME280;62035;52.094;5.112;2022-07-17T09:20:43;102832.09;;;23.42;75.57
62031;BME280;62035;52.094;5.112;2022-07-17T09:23:12;102841.28;;;23.41;75.10
62031;BME280;62035;52.094;5.112;2022-07-17T09:25:41;102843.81;;;23.42;76.83
62031;BME280;62035;52.094;5.112;2022-07-17T09:28:11;102844.53;;;23.59;75.95
62031;BME280;62035;52.094;5.112;2022-07-17T09:30:42;102857.84;;;23.54;75.89
62031;BME280;62035;52.094;5.112;2022-07-17T09:33:16;102848.66;;;23.55;76.16
62031;BME280;62035;52.094;5.112;2022-07-17T09:35:48;102862.25;;;23.32;76.52
62031;BME280;62035;52.094;5.112;2022-07-17T09:38:27;102853.31;;;23.23;77.54
62031;BME280;62035;52.094;5.112;2022-07-17T09:41:08;102854.28;;;23.31;76.85
62031;BME280;62035;52.094;5.112;2022-07-17T09:43:47;102845.75;;;23.56;76.36
62031;BME280;62035;52.094;5.112;2022-07-17T09:46:20;102840.75;;;23.89;73.56
62031;BME280;62035;52.094;5.112;2022-07-17T09:48:52;102838.69;;;23.91;72.84
62031;BME280;62035;52.094;5.112;2022-07-17T09:51:23;102836.59;;;24.08;72.49
62031;BME280;62035;52.094;5.112;2022-07-17T09:53:53;102841.19;;;24.37;71.75
62031;BME280;62035;52.094;5.112;2022-07-17T09:56:23;102835.72;;;24.58;70.82
62031;BME280;62035;52.094;5.112;2022-07-17T09:58:54;102825.03;;;24.36;71.62
62031;BME280;62035;52.094;5.112;2022-07-17T10:01:26;102832.06;;;24.66;72.82
62031;BME280;62035;52.094;5.112;2022-07-17T10:03:55;102830.34;;;24.86;71.15
62031;BME280;62035;52.094;5.112;2022-07-17T10:06:25;102824.13;;;25.14;69.53
62031;BME280;62035;52.094;5.112;2022-07-17T10:08:53;102825.41;;;25.46;68.18
62031;BME280;62035;52.094;5.112;2022-07-17T10:11:23;102820.75;;;25.40;67.89
62031;BME280;62035;52.094;5.112;2022-07-17T10:13:55;102822.25;;;25.14;67.96
62031;BME280;62035;52.094;5.112;2022-07-17T10:16:29;102826.38;;;24.89;68.77
62031;BME280;62035;52.094;5.112;2022-07-17T10:18:59;102823.38;;;24.99;69.85
62031;BME280;62035;52.094;5.112;2022-07-17T10:21:31;102827.13;;;25.25;68.57
62031;BME280;62035;52.094;5.112;2022-07-17T10:24:08;102822.66;;;25.46;68.32
62031;BME280;62035;52.094;5.112;2022-07-17T10:26:41;102822.16;;;25.36;69.95
62031;BME280;62035;52.094;5.112;2022-07-17T10:29:29;102829.06;;;25.32;69.41
62031;BME280;62035;52.094;5.112;2022-07-17T10:32:01;102826.53;;;25.58;68.90
62031;BME280;62035;52.094;5.112;2022-07-17T10:34:37;102829.41;;;25.50;69.46
62031;BME280;62035;52.094;5.112;2022-07-17T10:37:23;102814.66;;;25.72;68.30
62031;BME280;62035;52.094;5.112;2022-07-17T10:39:58;102814.53;;;25.87;67.98
62031;BME280;62035;52.094;5.112;2022-07-17T10:42:39;102817.38;;;26.20;67.53
62031;BME280;62035;52.094;5.112;2022-07-17T10:45:09;102816.44;;;26.00;66.53
62031;BME280;62035;52.094;5.112;2022-07-17T10:47:48;102827.00;;;26.09;67.04
62031;BME280;62035;52.094;5.112;2022-07-17T10:50:19;102820.78;;;26.29;66.62
62031;BME280;62035;52.094;5.112;2022-07-17T10:53:08;102826.38;;;26.14;65.69
62031;BME280;62035;52.094;5.112;2022-07-17T10:55:40;102825.88;;;26.45;65.07
62031;BME280;62035;52.094;5.112;2022-07-17T10:58:20;102834.72;;;26.53;64.14
62031;BME280;62035;52.094;5.112;2022-07-17T11:01:04;102836.22;;;26.69;63.41
62031;BME280;62035;52.094;5.112;2022-07-17T11:03:38;102838.53;;;26.92;62.58
62031;BME280;62035;52.094;5.112;2022-07-17T11:06:08;102833.72;;;26.74;61.77
62031;BME280;62035;52.094;5.112;2022-07-17T11:08:45;102822.13;;;26.92;60.89
62031;BME280;62035;52.094;5.112;2022-07-17T11:11:16;102827.22;;;27.08;60.88
62031;BME280;62035;52.094;5.112;2022-07-17T11:13:46;102823.81;;;26.93;59.41
62031;BME280;62035;52.094;5.112;2022-07-17T11:16:27;102830.09;;;26.61;60.30
62031;BME280;62035;52.094;5.112;2022-07-17T11:18:55;102842.53;;;26.76;58.54
62031;BME280;62035;52.094;5.112;2022-07-17T11:21:24;102846.94;;;26.84;59.00
62031;BME280;62035;52.094;5.112;2022-07-17T11:23:55;102838.16;;;27.15;57.11
62031;BME280;62035;52.094;5.112;2022-07-17T11:26:24;102822.75;;;27.40;55.44
62031;BME280;62035;52.094;5.112;2022-07-17T11:28:52;102834.78;;;27.06;57.39
62031;BME280;62035;52.094;5.112;2022-07-17T11:31:23;102824.38;;;27.74;53.87
62031;BME280;62035;52.094;5.112;2022-07-17T11:33:55;102834.03;;;27.83;53.93
62031;BME280;62035;52.094;5.112;2022-07-17T11:36:26;102828.19;;;27.73;54.93
62031;BME280;62035;52.094;5.112;2022-07-17T11:38:59;102823.28;;;27.88;52.59
62031;BME280;62035;52.094;5.112;2022-07-17T11:41:33;102821.72;;;28.06;52.47
62031;BME280;62035;52.094;5.112;2022-07-17T11:44:02;102811.56;;;27.62;52.38
62031;BME280;62035;52.094;5.112;2022-07-17T11:46:31;102817.56;;;27.19;56.16
62031;BME280;62035;52.094;5.112;2022-07-17T11:49:00;102816.84;;;27.56;55.55
62031;BME280;62035;52.094;5.112;2022-07-17T11:51:36;102813.94;;;28.47;52.66
62031;BME280;62035;52.094;5.112;2022-07-17T11:54:10;102806.03;;;28.64;50.08
62031;BME280;62035;52.094;5.112;2022-07-17T11:56:40;102805.91;;;28.52;49.69
62031;BME280;62035;52.094;5.112;2022-07-17T11:59:09;102798.47;;;28.60;50.71
62031;BME280;62035;52.094;5.112;2022-07-17T12:01:39;102799.69;;;29.38;48.64
62031;BME280;62035;52.094;5.112;2022-07-17T12:04:09;102801.75;;;29.98;48.25
62031;BME280;62035;52.094;5.112;2022-07-17T12:06:38;102794.88;;;30.90;46.10
62031;BME280;62035;52.094;5.112;2022-07-17T12:09:06;102790.94;;;31.33;45.33
62031;BME280;62035;52.094;5.112;2022-07-17T12:11:46;102801.47;;;30.36;45.37
62031;BME280;62035;52.094;5.112;2022-07-17T12:14:15;102790.09;;;30.97;44.76
62031;BME280;62035;52.094;5.112;2022-07-17T12:16:44;102791.56;;;31.35;42.53
62031;BME280;62035;52.094;5.112;2022-07-17T12:19:13;102797.53;;;31.08;42.39
62031;BME280;62035;52.094;5.112;2022-07-17T12:21:51;102787.72;;;31.36;40.68
62031;BME280;62035;52.094;5.112;2022-07-17T12:24:23;102798.22;;;30.69;41.35
62031;BME280;62035;52.094;5.112;2022-07-17T12:26:55;102784.81;;;30.84;40.24
62031;BME280;62035;52.094;5.112;2022-07-17T12:29:25;102779.34;;;31.07;39.84
62031;BME280;62035;52.094;5.112;2022-07-17T12:32:05;102775.84;;;31.59;39.41
62031;BME280;62035;52.094;5.112;2022-07-17T12:34:35;102771.91;;;31.55;38.44
62031;BME280;62035;52.094;5.112;2022-07-17T12:37:04;102763.66;;;31.95;37.82
62031;BME280;62035;52.094;5.112;2022-07-17T12:39:32;102773.66;;;32.01;37.10
62031;BME280;62035;52.094;5.112;2022-07-17T12:42:02;102771.53;;;32.48;35.74
62031;BME280;62035;52.094;5.112;2022-07-17T12:44:30;102764.03;;;32.94;35.72
62031;BME280;62035;52.094;5.112;2022-07-17T12:46:58;102778.50;;;31.94;35.96
62031;BME280;62035;52.094;5.112;2022-07-17T12:49:25;102777.44;;;31.95;36.02
62031;BME280;62035;52.094;5.112;2022-07-17T12:51:53;102765.78;;;32.33;35.08
62031;BME280;62035;52.094;5.112;2022-07-17T12:54:21;102765.00;;;32.09;36.22
62031;BME280;62035;52.094;5.112;2022-07-17T12:56:48;102757.41;;;32.44;35.21